createdAt,value
2023-04-16T00:00:12.958Z,101326.54
2023-04-16T00:00:36.287Z,101329.03
2023-04-16T00:00:59.704Z,101329.11
2023-04-16T00:01:22.815Z,101328.23
2023-04-16T00:01:46.187Z,101330.09
2023-04-16T00:02:09.660Z,101332.41
2023-04-16T00:02:33.385Z,101332.11
2023-04-16T00:02:56.846Z,101333.59
2023-04-16T00:03:20.399Z,101337.29
2023-04-16T00:03:44.051Z,101336.95
2023-04-16T00:04:07.608Z,101338.95
2023-04-16T00:04:31.315Z,101334.05
2023-04-16T00:04:54.441Z,101332.83
2023-04-16T00:05:17.459Z,101338.49
2023-04-16T00:05:40.444Z,101337.47
2023-04-16T00:06:03.680Z,101340.65
2023-04-16T00:06:28.718Z,101342.48
2023-04-16T00:06:52.029Z,101344.09
2023-04-16T00:07:15.659Z,101344.12
2023-04-16T00:07:39.595Z,101340.11
2023-04-16T00:08:03.132Z,101343.66
2023-04-16T00:08:26.542Z,101342.77
2023-04-16T00:08:50.576Z,101345.48
2023-04-16T00:09:13.884Z,101344.27
2023-04-16T00:09:37.423Z,101345.19
2023-04-16T00:10:00.637Z,101346.63
2023-04-16T00:10:23.739Z,101344.21
2023-04-16T00:10:46.956Z,101344.05
2023-04-16T00:11:10.783Z,101348.85
2023-04-16T00:11:34.513Z,101343.10
2023-04-16T00:11:57.733Z,101344.55
2023-04-16T00:12:20.946Z,101346.52
2023-04-16T00:12:44.382Z,101345.52
2023-04-16T00:13:07.630Z,101344.77
2023-04-16T00:13:30.567Z,101346.70
2023-04-16T00:13:53.729Z,101344.15
2023-04-16T00:14:17.032Z,101344.38
2023-04-16T00:14:40.145Z,101344.80
2023-04-16T00:15:03.930Z,101351.02
2023-04-16T00:15:27.082Z,101349.27
2023-04-16T00:15:50.224Z,101348.77
2023-04-16T00:16:13.360Z,101348.48
2023-04-16T00:16:36.446Z,101344.31
2023-04-16T00:16:59.859Z,101342.65
2023-04-16T00:17:23.147Z,101343.65
2023-04-16T00:17:46.687Z,101340.67
2023-04-16T00:18:09.761Z,101345.71
2023-04-16T00:18:33.331Z,101346.77
2023-04-16T00:18:56.545Z,101342.42
2023-04-16T00:19:19.762Z,101343.87
2023-04-16T00:19:42.873Z,101345.14
2023-04-16T00:20:06.807Z,101346.22
2023-04-16T00:20:30.127Z,101345.02
2023-04-16T00:20:54.784Z,101342.98
2023-04-16T00:21:17.898Z,101345.65
2023-04-16T00:21:41.005Z,101347.98
2023-04-16T00:22:04.026Z,101348.05
2023-04-16T00:22:28.257Z,101347.27
2023-04-16T00:22:51.469Z,101351.33
2023-04-16T00:23:14.504Z,101347.91
2023-04-16T00:23:38.139Z,101350.60
2023-04-16T00:24:01.323Z,101349.95
2023-04-16T00:24:24.643Z,101350.55
2023-04-16T00:24:47.788Z,101351.30
2023-04-16T00:25:10.978Z,101346.97
2023-04-16T00:25:34.087Z,101349.85
2023-04-16T00:26:00.128Z,101351.63
2023-04-16T00:26:23.504Z,101346.46
2023-04-16T00:26:47.113Z,101346.49
2023-04-16T00:27:11.553Z,101344.12
2023-04-16T00:27:34.772Z,101348.54
2023-04-16T00:27:57.907Z,101346.46
2023-04-16T00:28:21.304Z,101346.89
2023-04-16T00:28:44.263Z,101346.31
2023-04-16T00:29:08.382Z,101346.55
2023-04-16T00:29:32.592Z,101345.34
2023-04-16T00:29:55.718Z,101345.02
2023-04-16T00:30:19.656Z,101346.31
2023-04-16T00:30:42.738Z,101348.63
2023-04-16T00:31:06.428Z,101347.76
2023-04-16T00:31:30.278Z,101343.23
2023-04-16T00:31:53.524Z,101349.77
2023-04-16T00:32:17.167Z,101346.95
2023-04-16T00:32:40.379Z,101345.22
2023-04-16T00:33:04.922Z,101348.15
2023-04-16T00:33:30.232Z,101344.24
2023-04-16T00:33:53.905Z,101346.60
2023-04-16T00:34:17.019Z,101348.23
2023-04-16T00:34:40.128Z,101349.02
2023-04-16T00:35:03.346Z,101349.41
2023-04-16T00:35:27.072Z,101346.34
2023-04-16T00:35:50.702Z,101349.35
2023-04-16T00:36:14.324Z,101351.20
2023-04-16T00:36:37.948Z,101351.16
2023-04-16T00:37:01.584Z,101350.52
2023-04-16T00:37:24.586Z,101350.47
2023-04-16T00:37:47.700Z,101350.14
2023-04-16T00:38:10.919Z,101350.13
2023-04-16T00:38:35.358Z,101351.92
2023-04-16T00:38:58.987Z,101352.37
2023-04-16T00:39:22.271Z,101348.86
2023-04-16T00:39:45.934Z,101350.84
2023-04-16T00:40:09.658Z,101353.12
2023-04-16T00:40:33.079Z,101353.16
2023-04-16T00:40:58.963Z,101352.16
2023-04-16T00:41:23.200Z,101349.20
2023-04-16T00:41:46.341Z,101350.30
2023-04-16T00:42:09.935Z,101347.15
2023-04-16T00:42:33.760Z,101353.19
2023-04-16T00:42:56.883Z,101353.54
2023-04-16T00:43:21.013Z,101351.14
2023-04-16T00:43:43.924Z,101351.13
2023-04-16T00:44:07.045Z,101346.61
2023-04-16T00:44:30.659Z,101349.98
2023-04-16T00:44:53.981Z,101346.50
2023-04-16T00:45:17.093Z,101351.66
2023-04-16T00:45:40.517Z,101346.61
2023-04-16T00:46:03.558Z,101348.54
2023-04-16T00:46:27.529Z,101348.96
2023-04-16T00:46:51.234Z,101348.84
2023-04-16T00:47:14.302Z,101351.50
2023-04-16T00:47:37.528Z,101351.02
2023-04-16T00:48:00.979Z,101352.45
2023-04-16T00:48:24.971Z,101352.09
2023-04-16T00:48:48.191Z,101352.67
2023-04-16T00:49:11.449Z,101356.00
2023-04-16T00:49:34.622Z,101354.95
2023-04-16T00:49:57.843Z,101353.02
2023-04-16T00:50:21.672Z,101352.53
2023-04-16T00:50:44.782Z,101352.95
2023-04-16T00:51:08.240Z,101349.73
2023-04-16T00:51:31.939Z,101351.11
2023-04-16T00:51:55.861Z,101351.25
2023-04-16T00:52:18.872Z,101350.09
2023-04-16T00:52:42.212Z,101351.41
2023-04-16T00:53:05.510Z,101346.73
2023-04-16T00:53:28.938Z,101349.77
2023-04-16T00:53:52.147Z,101349.66
2023-04-16T00:54:15.570Z,101349.01
2023-04-16T00:54:38.990Z,101348.37
2023-04-16T00:55:02.020Z,101347.26
2023-04-16T00:55:25.732Z,101348.20
2023-04-16T00:55:49.187Z,101348.55
2023-04-16T00:56:12.989Z,101342.27
2023-04-16T00:56:36.619Z,101348.25
2023-04-16T00:56:59.729Z,101350.46
2023-04-16T00:57:24.165Z,101348.73
2023-04-16T00:57:47.380Z,101347.39
2023-04-16T00:58:10.499Z,101346.46
2023-04-16T00:58:34.016Z,101349.55
2023-04-16T00:58:57.031Z,101349.85
2023-04-16T00:59:20.348Z,101344.52
2023-04-16T00:59:43.470Z,101347.78
2023-04-16T01:00:07.138Z,101346.36
2023-04-16T01:00:30.639Z,101345.57
2023-04-16T01:00:53.656Z,101344.98
2023-04-16T01:01:16.873Z,101347.05
2023-04-16T01:01:40.719Z,101345.25
2023-04-16T01:02:03.881Z,101349.24
2023-04-16T01:02:28.230Z,101346.70
2023-04-16T01:02:52.452Z,101348.38
2023-04-16T01:03:16.039Z,101345.83
2023-04-16T01:03:41.353Z,101349.26
2023-04-16T01:04:07.341Z,101348.95
2023-04-16T01:04:31.289Z,101347.80
2023-04-16T01:04:54.828Z,101347.36
2023-04-16T01:05:18.112Z,101349.95
2023-04-16T01:05:41.422Z,101348.23
2023-04-16T01:06:04.844Z,101346.02
2023-04-16T01:06:28.468Z,101348.59
2023-04-16T01:06:51.689Z,101347.64
2023-04-16T01:07:14.703Z,101349.34
2023-04-16T01:07:37.939Z,101348.91
2023-04-16T01:08:01.452Z,101348.13
2023-04-16T01:08:25.368Z,101347.18
2023-04-16T01:08:49.015Z,101347.39
2023-04-16T01:09:12.322Z,101350.02
2023-04-16T01:09:35.637Z,101347.20
2023-04-16T01:09:59.882Z,101348.04
2023-04-16T01:10:23.323Z,101349.93
2023-04-16T01:10:46.822Z,101349.69
2023-04-16T01:11:11.164Z,101349.79
2023-04-16T01:11:34.476Z,101347.41
2023-04-16T01:11:57.505Z,101346.14
2023-04-16T01:12:20.706Z,101349.80
2023-04-16T01:12:43.746Z,101349.78
2023-04-16T01:13:06.863Z,101350.15
2023-04-16T01:13:30.788Z,101350.20
2023-04-16T01:13:54.080Z,101350.44
2023-04-16T01:14:17.298Z,101349.45
2023-04-16T01:14:40.621Z,101350.23
2023-04-16T01:15:04.251Z,101350.02
2023-04-16T01:15:27.969Z,101351.55
2023-04-16T01:15:51.016Z,101350.63
2023-04-16T01:16:14.975Z,101349.31
2023-04-16T01:16:38.130Z,101349.63
2023-04-16T01:17:03.496Z,101351.48
2023-04-16T01:17:26.480Z,101354.23
2023-04-16T01:17:49.546Z,101346.42
2023-04-16T01:18:16.111Z,101352.36
2023-04-16T01:18:39.354Z,101350.73
2023-04-16T01:19:03.157Z,101350.95
2023-04-16T01:19:26.266Z,101352.09
2023-04-16T01:19:49.497Z,101354.64
2023-04-16T01:20:13.116Z,101352.66
2023-04-16T01:20:36.677Z,101351.67
2023-04-16T01:20:59.690Z,101348.28
2023-04-16T01:21:22.711Z,101347.13
2023-04-16T01:21:45.977Z,101347.23
2023-04-16T01:22:09.704Z,101345.05
2023-04-16T01:22:32.724Z,101347.02
2023-04-16T01:22:56.061Z,101347.80
2023-04-16T01:23:19.254Z,101347.88
2023-04-16T01:23:42.364Z,101347.98
2023-04-16T01:24:05.579Z,101346.45
2023-04-16T01:24:30.342Z,101347.39
2023-04-16T01:24:53.264Z,101347.61
2023-04-16T01:25:17.099Z,101344.90
2023-04-16T01:25:40.901Z,101350.58
2023-04-16T01:26:04.333Z,101351.02
2023-04-16T01:26:27.745Z,101350.03
2023-04-16T01:26:50.972Z,101349.42
2023-04-16T01:27:14.382Z,101348.96
2023-04-16T01:27:37.813Z,101348.55
2023-04-16T01:28:00.951Z,101343.91
2023-04-16T01:28:24.643Z,101347.14
2023-04-16T01:28:47.965Z,101347.59
2023-04-16T01:29:11.537Z,101346.95
2023-04-16T01:29:35.241Z,101342.63
2023-04-16T01:29:58.631Z,101343.42
2023-04-16T01:30:31.802Z,101343.32
2023-04-16T01:31:07.751Z,101343.46
2023-04-16T01:31:40.659Z,101343.09
2023-04-16T01:32:12.358Z,101338.95
2023-04-16T01:32:37.489Z,101343.41
2023-04-16T01:33:00.731Z,101339.83
2023-04-16T01:33:25.579Z,101342.06
2023-04-16T01:33:48.661Z,101339.16
2023-04-16T01:34:11.809Z,101339.63
2023-04-16T01:34:34.878Z,101339.73
2023-04-16T01:34:57.845Z,101336.70
2023-04-16T01:35:21.009Z,101339.86
2023-04-16T01:35:44.133Z,101339.35
2023-04-16T01:36:08.980Z,101335.55
2023-04-16T01:36:32.430Z,101337.23
2023-04-16T01:36:55.628Z,101334.30
2023-04-16T01:37:19.232Z,101337.01
2023-04-16T01:37:42.654Z,101334.23
2023-04-16T01:38:07.964Z,101332.23
2023-04-16T01:38:31.438Z,101333.22
2023-04-16T01:38:54.859Z,101332.44
2023-04-16T01:39:19.618Z,101333.38
2023-04-16T01:39:42.622Z,101332.96
2023-04-16T01:40:06.148Z,101334.45
2023-04-16T01:40:29.260Z,101331.80
2023-04-16T01:40:55.955Z,101333.60
2023-04-16T01:41:18.966Z,101331.13
2023-04-16T01:41:43.193Z,101330.88
2023-04-16T01:42:06.230Z,101334.27
2023-04-16T01:42:29.336Z,101333.81
2023-04-16T01:42:52.648Z,101330.02
2023-04-16T01:43:16.085Z,101331.16
2023-04-16T01:43:40.484Z,101336.32
2023-04-16T01:44:03.935Z,101334.80
2023-04-16T01:44:28.189Z,101333.65
2023-04-16T01:44:51.223Z,101335.11
2023-04-16T01:45:14.336Z,101332.55
2023-04-16T01:45:37.476Z,101332.81
2023-04-16T01:46:14.222Z,101334.23
2023-04-16T01:46:37.438Z,101332.39
2023-04-16T01:47:00.897Z,101333.67
2023-04-16T01:47:24.116Z,101333.60
2023-04-16T01:47:47.493Z,101332.42
2023-04-16T01:48:10.878Z,101333.71
2023-04-16T01:48:35.079Z,101332.36
2023-04-16T01:48:58.278Z,101331.45
2023-04-16T01:49:21.288Z,101335.13
2023-04-16T01:49:45.835Z,101331.52
2023-04-16T01:50:09.360Z,101335.45
2023-04-16T01:50:32.559Z,101333.20
2023-04-16T01:50:55.894Z,101333.77
2023-04-16T01:51:19.113Z,101331.52
2023-04-16T01:51:42.429Z,101334.73
2023-04-16T01:52:08.626Z,101332.63
2023-04-16T01:52:31.953Z,101332.92
2023-04-16T01:52:55.044Z,101333.23
2023-04-16T01:53:18.262Z,101334.55
2023-04-16T01:53:41.372Z,101333.27
2023-04-16T01:54:06.234Z,101332.13
2023-04-16T01:54:29.854Z,101337.65
2023-04-16T01:54:53.072Z,101336.66
2023-04-16T01:55:16.594Z,101336.61
2023-04-16T01:55:39.808Z,101335.61
2023-04-16T01:56:02.928Z,101332.95
2023-04-16T01:56:26.753Z,101333.80
2023-04-16T01:56:49.871Z,101338.00
2023-04-16T01:57:13.595Z,101333.07
2023-04-16T01:57:36.726Z,101335.23
2023-04-16T01:58:00.440Z,101337.69
2023-04-16T01:58:26.012Z,101333.48
2023-04-16T01:58:49.128Z,101334.46
2023-04-16T01:59:13.155Z,101335.91
2023-04-16T01:59:38.625Z,101332.31
2023-04-16T02:00:03.822Z,101332.90
2023-04-16T02:00:28.020Z,101333.48
2023-04-16T02:00:51.273Z,101334.66
2023-04-16T02:01:14.612Z,101332.44
2023-04-16T02:01:38.383Z,101332.70
2023-04-16T02:02:03.171Z,101332.77
2023-04-16T02:02:29.427Z,101331.95
2023-04-16T02:02:52.811Z,101330.30
2023-04-16T02:03:20.128Z,101332.15
2023-04-16T02:03:43.660Z,101330.31
2023-04-16T02:04:07.743Z,101333.50
2023-04-16T02:04:31.942Z,101330.30
2023-04-16T02:04:55.016Z,101334.91
2023-04-16T02:05:18.484Z,101335.37
2023-04-16T02:05:43.028Z,101336.17
2023-04-16T02:06:06.261Z,101336.76
2023-04-16T02:06:29.456Z,101334.41
2023-04-16T02:06:53.390Z,101336.95
2023-04-16T02:07:17.019Z,101337.08
2023-04-16T02:07:40.030Z,101339.77
2023-04-16T02:08:03.269Z,101337.91
2023-04-16T02:08:27.892Z,101339.25
2023-04-16T02:08:51.410Z,101338.63
2023-04-16T02:09:14.940Z,101341.17
2023-04-16T02:09:39.185Z,101338.61
2023-04-16T02:10:04.950Z,101342.35
2023-04-16T02:10:29.205Z,101340.73
2023-04-16T02:10:52.406Z,101343.68
2023-04-16T02:11:16.036Z,101341.88
2023-04-16T02:11:39.759Z,101345.67
2023-04-16T02:12:03.588Z,101341.45
2023-04-16T02:12:26.704Z,101344.02
2023-04-16T02:12:51.376Z,101345.36
2023-04-16T02:13:17.357Z,101344.27
2023-04-16T02:13:42.385Z,101344.73
2023-04-16T02:14:05.601Z,101345.38
2023-04-16T02:14:28.916Z,101344.45
2023-04-16T02:14:52.338Z,101342.16
2023-04-16T02:15:16.479Z,101341.80
2023-04-16T02:15:39.793Z,101344.11
2023-04-16T02:16:02.990Z,101344.13
2023-04-16T02:16:46.814Z,101340.95
2023-04-16T02:17:19.439Z,101338.58
2023-04-16T02:17:46.859Z,101342.91
2023-04-16T02:18:10.142Z,101340.05
2023-04-16T02:18:33.352Z,101342.20
2023-04-16T02:18:56.488Z,101340.35
2023-04-16T02:19:20.397Z,101337.98
2023-04-16T02:19:43.716Z,101338.91
2023-04-16T02:20:08.387Z,101338.31
2023-04-16T02:20:32.928Z,101340.65
2023-04-16T02:20:57.786Z,101336.37
2023-04-16T02:21:21.166Z,101337.34
2023-04-16T02:21:44.809Z,101338.31
2023-04-16T02:22:08.035Z,101338.60
2023-04-16T02:22:32.575Z,101339.06
2023-04-16T02:22:55.689Z,101337.21
2023-04-16T02:23:19.830Z,101339.75
2023-04-16T02:23:47.747Z,101338.73
2023-04-16T02:24:10.975Z,101337.80
2023-04-16T02:24:34.084Z,101337.69
2023-04-16T02:25:01.591Z,101337.62
2023-04-16T02:25:25.477Z,101337.69
2023-04-16T02:25:49.571Z,101338.29
2023-04-16T02:26:13.889Z,101338.19
2023-04-16T02:26:37.109Z,101340.72
2023-04-16T02:27:02.886Z,101335.88
2023-04-16T02:27:26.102Z,101338.73
2023-04-16T02:27:52.589Z,101337.06
2023-04-16T02:28:36.198Z,101338.06
2023-04-16T02:28:59.189Z,101338.86
2023-04-16T02:29:27.602Z,101338.49
2023-04-16T02:29:55.982Z,101338.83
2023-04-16T02:30:19.148Z,101336.90
2023-04-16T02:30:42.106Z,101342.06
2023-04-16T02:31:05.927Z,101339.23
2023-04-16T02:31:35.463Z,101339.27
2023-04-16T02:31:59.866Z,101337.62
2023-04-16T02:32:23.661Z,101338.39
2023-04-16T02:32:47.002Z,101339.69
2023-04-16T02:33:11.281Z,101339.43
2023-04-16T02:33:36.232Z,101339.20
2023-04-16T02:33:59.542Z,101337.61
2023-04-16T02:34:22.565Z,101338.11
2023-04-16T02:34:45.631Z,101340.77
2023-04-16T02:35:09.106Z,101336.72
2023-04-16T02:35:34.874Z,101334.14
2023-04-16T02:35:58.288Z,101338.92
2023-04-16T02:36:21.306Z,101337.40
2023-04-16T02:36:44.403Z,101336.40
2023-04-16T02:37:07.764Z,101339.23
2023-04-16T02:37:31.152Z,101336.52
2023-04-16T02:37:54.190Z,101341.27
2023-04-16T02:38:18.201Z,101339.23
2023-04-16T02:38:41.289Z,101335.23
2023-04-16T02:39:04.843Z,101337.30
2023-04-16T02:39:28.272Z,101338.23
2023-04-16T02:39:51.679Z,101334.80
2023-04-16T02:40:15.304Z,101335.25
2023-04-16T02:40:38.325Z,101335.14
2023-04-16T02:41:01.673Z,101335.40
2023-04-16T02:41:25.158Z,101334.05
2023-04-16T02:41:48.382Z,101334.47
2023-04-16T02:42:11.497Z,101335.77
2023-04-16T02:42:35.644Z,101333.02
2023-04-16T02:42:58.742Z,101336.92
2023-04-16T02:43:22.059Z,101336.45
2023-04-16T02:43:45.367Z,101339.51
2023-04-16T02:44:08.492Z,101337.63
2023-04-16T02:44:32.015Z,101338.05
2023-04-16T02:44:55.127Z,101340.73
2023-04-16T02:45:18.346Z,101338.48
2023-04-16T02:45:42.531Z,101340.11
2023-04-16T02:46:06.274Z,101341.04
2023-04-16T02:46:29.470Z,101340.85
2023-04-16T02:46:52.642Z,101339.44
2023-04-16T02:47:16.064Z,101339.20
2023-04-16T02:47:39.212Z,101342.88
2023-04-16T02:48:03.192Z,101338.57
2023-04-16T02:48:26.529Z,101336.96
2023-04-16T02:48:49.425Z,101333.55
2023-04-16T02:49:12.454Z,101338.02
2023-04-16T02:49:36.085Z,101339.20
2023-04-16T02:49:59.109Z,101338.96
2023-04-16T02:50:22.178Z,101336.77
2023-04-16T02:50:45.726Z,101336.34
2023-04-16T02:51:08.769Z,101336.81
2023-04-16T02:51:33.490Z,101336.23
2023-04-16T02:51:56.601Z,101338.14
2023-04-16T02:52:19.716Z,101337.80
2023-04-16T02:52:43.033Z,101336.23
2023-04-16T02:53:07.992Z,101336.06
2023-04-16T02:53:31.895Z,101334.02
2023-04-16T02:53:55.016Z,101333.38
2023-04-16T02:54:18.148Z,101333.75
2023-04-16T02:54:41.197Z,101330.30
2023-04-16T02:55:04.991Z,101332.28
2023-04-16T02:55:29.597Z,101332.15
2023-04-16T02:55:53.470Z,101329.40
2023-04-16T02:56:16.798Z,101327.50
2023-04-16T02:56:40.018Z,101329.09
2023-04-16T02:57:03.525Z,101327.44
2023-04-16T02:57:26.723Z,101329.38
2023-04-16T02:57:49.967Z,101331.00
2023-04-16T02:58:14.301Z,101334.54
2023-04-16T02:58:37.620Z,101332.28
2023-04-16T02:59:01.146Z,101332.69
2023-04-16T02:59:24.876Z,101332.73
2023-04-16T02:59:47.906Z,101333.46
2023-04-16T03:00:11.422Z,101334.73
2023-04-16T03:00:34.927Z,101333.17
2023-04-16T03:00:58.402Z,101337.60
2023-04-16T03:01:22.159Z,101331.85
2023-04-16T03:01:45.669Z,101335.71
2023-04-16T03:02:08.954Z,101336.25
2023-04-16T03:02:32.423Z,101337.13
2023-04-16T03:02:56.351Z,101335.20
2023-04-16T03:03:19.667Z,101336.06
2023-04-16T03:03:42.811Z,101337.83
2023-04-16T03:04:06.004Z,101337.13
2023-04-16T03:04:29.392Z,101337.28
2023-04-16T03:04:53.681Z,101338.09
2023-04-16T03:05:16.698Z,101337.33
2023-04-16T03:05:40.621Z,101339.89
2023-04-16T03:06:03.951Z,101341.16
2023-04-16T03:06:27.265Z,101342.97
2023-04-16T03:06:50.686Z,101340.75
2023-04-16T03:07:14.113Z,101338.67
2023-04-16T03:07:39.376Z,101338.01
2023-04-16T03:08:03.709Z,101340.64
2023-04-16T03:08:26.825Z,101341.60
2023-04-16T03:08:49.955Z,101341.30
2023-04-16T03:09:13.467Z,101339.45
2023-04-16T03:09:36.677Z,101343.08
2023-04-16T03:09:59.893Z,101339.54
2023-04-16T03:10:23.744Z,101338.79
2023-04-16T03:10:47.044Z,101341.77
2023-04-16T03:11:11.695Z,101339.14
2023-04-16T03:11:35.840Z,101338.63
2023-04-16T03:11:58.846Z,101342.17
2023-04-16T03:12:22.265Z,101343.77
2023-04-16T03:12:45.713Z,101344.17
2023-04-16T03:13:08.898Z,101343.45
2023-04-16T03:13:32.128Z,101342.23
2023-04-16T03:13:55.738Z,101345.73
2023-04-16T03:14:18.951Z,101349.41
2023-04-16T03:14:41.971Z,101346.61
2023-04-16T03:15:05.435Z,101346.42
2023-04-16T03:15:28.742Z,101346.20
2023-04-16T03:15:51.983Z,101352.89
2023-04-16T03:16:15.841Z,101347.41
2023-04-16T03:16:39.073Z,101352.48
2023-04-16T03:17:02.387Z,101351.23
2023-04-16T03:17:25.725Z,101356.33
2023-04-16T03:17:48.912Z,101358.44
2023-04-16T03:18:12.043Z,101357.91
2023-04-16T03:18:35.051Z,101354.76
2023-04-16T03:18:58.068Z,101356.67
2023-04-16T03:19:21.185Z,101357.01
2023-04-16T03:19:44.398Z,101357.70
2023-04-16T03:20:08.332Z,101358.74
2023-04-16T03:20:31.653Z,101362.02
2023-04-16T03:20:55.064Z,101358.70
2023-04-16T03:21:18.495Z,101362.03
2023-04-16T03:21:41.813Z,101358.30
2023-04-16T03:22:05.063Z,101358.48
2023-04-16T03:22:27.949Z,101355.84
2023-04-16T03:22:52.479Z,101358.38
2023-04-16T03:23:15.699Z,101359.02
2023-04-16T03:23:38.825Z,101359.95
2023-04-16T03:24:02.024Z,101356.70
2023-04-16T03:24:26.263Z,101355.66
2023-04-16T03:24:49.166Z,101359.20
2023-04-16T03:25:12.385Z,101358.50
2023-04-16T03:25:35.716Z,101359.21
2023-04-16T03:25:58.931Z,101360.48
2023-04-16T03:26:22.756Z,101363.27
2023-04-16T03:26:46.377Z,101365.38
2023-04-16T03:27:09.394Z,101362.77
2023-04-16T03:27:33.120Z,101361.80
2023-04-16T03:27:56.356Z,101363.26
2023-04-16T03:28:19.651Z,101365.11
2023-04-16T03:28:42.711Z,101360.86
2023-04-16T03:29:05.893Z,101363.42
2023-04-16T03:29:29.607Z,101366.38
2023-04-16T03:29:53.134Z,101365.65
2023-04-16T03:30:16.662Z,101363.48
2023-04-16T03:30:39.870Z,101364.20
2023-04-16T03:31:03.621Z,101366.47
2023-04-16T03:31:27.056Z,101367.33
2023-04-16T03:31:50.756Z,101367.99
2023-04-16T03:32:13.862Z,101366.93
2023-04-16T03:32:37.434Z,101371.45
2023-04-16T03:33:01.498Z,101367.75
2023-04-16T03:33:24.948Z,101369.33
2023-04-16T03:33:49.282Z,101370.00
2023-04-16T03:34:12.501Z,101372.13
2023-04-16T03:34:37.254Z,101372.95
2023-04-16T03:35:00.782Z,101375.37
2023-04-16T03:35:24.503Z,101375.92
2023-04-16T03:35:47.824Z,101374.84
2023-04-16T03:36:10.908Z,101376.77
2023-04-16T03:36:33.981Z,101380.27
2023-04-16T03:36:56.981Z,101377.79
2023-04-16T03:37:20.173Z,101378.80
2023-04-16T03:37:43.389Z,101377.41
2023-04-16T03:38:06.814Z,101380.91
2023-04-16T03:38:30.038Z,101381.45
2023-04-16T03:38:53.859Z,101381.62
2023-04-16T03:39:17.076Z,101385.47
2023-04-16T03:39:41.729Z,101383.83
2023-04-16T03:40:07.228Z,101384.52
2023-04-16T03:40:31.121Z,101386.07
2023-04-16T03:40:55.265Z,101386.48
2023-04-16T03:41:18.677Z,101388.34
2023-04-16T03:41:41.768Z,101386.08
2023-04-16T03:42:04.704Z,101387.69
2023-04-16T03:42:29.353Z,101389.81
2023-04-16T03:42:53.798Z,101389.84
2023-04-16T03:43:16.907Z,101388.33
2023-04-16T03:43:40.145Z,101390.98
2023-04-16T03:44:03.592Z,101389.75
2023-04-16T03:44:28.209Z,101389.07
2023-04-16T03:44:53.707Z,101391.09
2023-04-16T03:45:17.490Z,101387.53
2023-04-16T03:45:45.114Z,101390.23
2023-04-16T03:46:08.498Z,101387.94
2023-04-16T03:46:32.271Z,101390.52
2023-04-16T03:46:56.091Z,101390.65
2023-04-16T03:47:19.627Z,101391.19
2023-04-16T03:47:43.104Z,101394.28
2023-04-16T03:48:06.858Z,101393.39
2023-04-16T03:48:29.868Z,101394.05
2023-04-16T03:48:54.104Z,101393.61
2023-04-16T03:49:17.534Z,101394.27
2023-04-16T03:49:40.968Z,101396.23
2023-04-16T03:50:04.576Z,101394.77
2023-04-16T03:50:27.662Z,101397.15
2023-04-16T03:50:51.323Z,101402.40
2023-04-16T03:51:16.473Z,101399.71
2023-04-16T03:51:39.689Z,101398.62
2023-04-16T03:52:03.009Z,101402.55
2023-04-16T03:52:27.055Z,101403.54
2023-04-16T03:52:51.180Z,101402.45
2023-04-16T03:53:14.498Z,101405.55
2023-04-16T03:53:37.920Z,101400.75
2023-04-16T03:54:01.477Z,101401.89
2023-04-16T03:54:25.278Z,101406.39
2023-04-16T03:54:54.524Z,101406.52
2023-04-16T03:55:22.559Z,101403.13
2023-04-16T03:55:45.562Z,101407.98
2023-04-16T03:56:08.879Z,101402.86
2023-04-16T03:56:33.641Z,101405.10
2023-04-16T03:56:57.236Z,101403.31
2023-04-16T03:57:20.401Z,101403.27
2023-04-16T03:57:43.401Z,101407.77
2023-04-16T03:58:08.660Z,101404.00
2023-04-16T03:58:31.865Z,101408.30
2023-04-16T03:58:54.980Z,101411.00
2023-04-16T03:59:18.495Z,101407.86
2023-04-16T03:59:41.604Z,101409.74
2023-04-16T04:00:05.383Z,101408.64
2023-04-16T04:00:37.552Z,101406.80
2023-04-16T04:01:03.941Z,101410.52
2023-04-16T04:01:27.872Z,101413.63
2023-04-16T04:01:51.069Z,101413.63
2023-04-16T04:02:14.385Z,101409.52
2023-04-16T04:02:39.244Z,101408.83
2023-04-16T04:03:02.791Z,101407.98
2023-04-16T04:03:26.680Z,101411.79
2023-04-16T04:03:51.291Z,101411.80
2023-04-16T04:04:15.528Z,101408.57
2023-04-16T04:04:38.919Z,101408.09
2023-04-16T04:05:02.301Z,101410.41
2023-04-16T04:05:26.188Z,101413.34
2023-04-16T04:05:50.821Z,101409.26
2023-04-16T04:06:20.791Z,101410.16
2023-04-16T04:06:45.337Z,101409.08
2023-04-16T04:07:09.164Z,101406.04
2023-04-16T04:07:33.235Z,101405.67
2023-04-16T04:07:56.651Z,101408.82
2023-04-16T04:08:19.933Z,101409.44
2023-04-16T04:08:43.386Z,101410.34
2023-04-16T04:09:06.687Z,101407.52
2023-04-16T04:09:29.900Z,101407.67
2023-04-16T04:09:53.026Z,101410.66
2023-04-16T04:10:16.662Z,101406.79
2023-04-16T04:10:39.962Z,101408.31
2023-04-16T04:11:03.508Z,101405.64
2023-04-16T04:11:27.405Z,101408.60
2023-04-16T04:11:50.733Z,101407.16
2023-04-16T04:12:13.941Z,101406.75
2023-04-16T04:12:37.564Z,101406.16
2023-04-16T04:13:01.192Z,101406.98
2023-04-16T04:13:24.410Z,101407.80
2023-04-16T04:13:47.933Z,101403.90
2023-04-16T04:14:11.260Z,101406.81
2023-04-16T04:14:39.955Z,101405.02
2023-04-16T04:15:03.283Z,101408.59
2023-04-16T04:15:26.628Z,101406.45
2023-04-16T04:15:51.090Z,101407.02
2023-04-16T04:16:14.457Z,101410.11
2023-04-16T04:16:39.574Z,101407.70
2023-04-16T04:17:02.768Z,101408.93
2023-04-16T04:17:27.212Z,101409.05
2023-04-16T04:17:50.467Z,101410.23
2023-04-16T04:18:13.847Z,101409.85
2023-04-16T04:18:36.960Z,101409.01
2023-04-16T04:19:01.398Z,101408.65
2023-04-16T04:19:24.674Z,101409.89
2023-04-16T04:20:00.466Z,101412.92
2023-04-16T04:20:24.703Z,101411.09
2023-04-16T04:20:48.488Z,101412.42
2023-04-16T04:21:12.812Z,101413.84
2023-04-16T04:21:36.173Z,101414.19
2023-04-16T04:21:59.768Z,101412.98
2023-04-16T04:22:22.779Z,101414.04
2023-04-16T04:22:48.758Z,101413.02
2023-04-16T04:23:11.789Z,101414.98
2023-04-16T04:23:35.610Z,101416.68
2023-04-16T04:23:58.825Z,101418.98
2023-04-16T04:24:21.953Z,101414.78
2023-04-16T04:24:45.148Z,101417.06
2023-04-16T04:25:08.990Z,101418.83
2023-04-16T04:25:32.907Z,101420.41
2023-04-16T04:25:56.521Z,101418.80
2023-04-16T04:26:21.220Z,101416.48
2023-04-16T04:26:44.296Z,101417.34
2023-04-16T04:27:10.888Z,101418.42
2023-04-16T04:27:34.104Z,101418.69
2023-04-16T04:27:57.220Z,101422.38
2023-04-16T04:28:20.657Z,101420.05
2023-04-16T04:28:43.861Z,101417.61
2023-04-16T04:29:07.149Z,101420.43
2023-04-16T04:29:31.009Z,101418.66
2023-04-16T04:29:54.974Z,101419.50
2023-04-16T04:30:18.975Z,101419.67
2023-04-16T04:30:42.258Z,101419.84
2023-04-16T04:31:05.539Z,101420.41
2023-04-16T04:31:28.678Z,101417.27
2023-04-16T04:31:52.337Z,101422.16
2023-04-16T04:32:15.736Z,101420.71